Meath Environmental Platform

Observations for Trim Patrick St

Time AQI Temp °C Hum % Pres Pa CO μg/m³ H₂S μg/m³ NO μg/m³ NO₂ μg/m³ O₃ μg/m³ SO₂ μg/m³ PM1 μg/m³ PM2.5 μg/m³ PM10 μg/m³
Friday 7 August 2026
06:33 1 13.1 78 38,460 0.31 4.09 3.43 37.23 10.32 2.71 2 6.04 6.64
06:32 1 13.1 79 38,460 0.3 2.01 3.29 27.82 15.69 0 2 5.28 5.81
06:31 1 13.1 79 38,460 0.29 2.61 3.34 28.26 20.37 0 2 5.98 6.58
06:30 1 13 79 38,460 0.3 1.62 3.33 23.48 19.27 0 2 4.6 5.06
06:29 1 13 79 38,460 0.3 2.04 3.25 27.89 17.38 0 2 5.28 5.81
06:28 1 13 79 38,460 0.3 0.54 3.25 29.66 10.11 0 2 4.57 5.03
06:27 1 13 79 38,460 0.3 0.82 3.23 24.87 10.66 0 2 4.57 5.02
06:26 1 13 80 38,460 0.33 1.57 3.23 30.59 7.89 0 2 5.25 5.78
06:25 1 13 79 38,460 0.29 0.3 3.28 24.84 9.11 0 2 4.58 5.04
06:24 1 13 79 38,460 0.3 2.58 3.26 25.74 14.92 0 2 5.27 5.8
06:23 1 13 79 38,460 0.29 2.22 3.25 33.97 9.94 0 2 5.27 5.8
06:22 1 13 80 38,460 0.31 1.05 3.22 24.04 10.36 0 2 5.25 5.78
06:21 1 13 79 38,460 0.31 1.91 3.28 22 16.1 0 2 4.57 5.02
06:20 1 13 80 38,460 0.29 0.2 3.33 23.2 9.64 0 2 5.25 5.78
06:19 1 13 79 38,460 0.29 0 3.37 14.83 15.09 0 2.86 5.96 6.56
06:17 1 13.1 79 38,460 0.3 0 3.25 18.86 12.09 0 2 5.96 6.56
06:16 1 13 79 38,460 0.32 0.25 3.24 21.32 11.84 0 2 4.56 5.01
06:15 1 13.1 79 38,460 0.31 0.82 3.2 30.95 7.13 0 2 5.97 6.56
06:14 1 13.1 79 38,460 0.29 0 3.2 13.45 15.61 0 2 5.27 5.79
06:13 1 13.1 79 38,460 0.29 1.96 3.26 23.5 21.43 0 2.86 5.28 5.81